CST,Max TemperatureF,Mean TemperatureF,Min TemperatureF,Max Dew PointF,MeanDew PointF,Min DewpointF,Max Humidity, Mean Humidity, Min Humidity, Max Sea Level PressureIn, Mean Sea Level PressureIn, Min Sea Level PressureIn, Max VisibilityMiles, Mean VisibilityMiles, Min VisibilityMiles, Max Wind SpeedMPH, Mean Wind SpeedMPH, Max Gust SpeedMPH,PrecipitationIn, CloudCover, Events, WindDirDegrees
2013-2-1,70,52,33,40,28,21,64,43,22,30.31,30.21,30.10,10,10,10,21,8,26,0.00,0,,174
2013-2-2,66,52,38,46,36,27,96,61,25,30.33,30.22,30.09,10,10,10,21,10,26,0.00,0,,337
2013-2-3,71,51,31,49,37,26,75,57,39,30.34,30.17,29.89,10,10,10,20,7,28,0.00,2,,191
2013-2-4,76,62,47,49,38,28,72,46,19,29.91,29.86,29.78,10,10,10,22,12,28,0.00,0,,250
2013-2-5,77,56,35,41,33,29,75,48,21,30.03,29.95,29.88,10,10,10,10,5,14,0.00,0,,203
2013-2-6,79,61,42,54,45,35,76,54,31,29.96,29.87,29.78,10,10,9,18,7,22,0.00,0,,196
2013-2-7,75,63,50,57,45,30,100,60,20,30.17,29.95,29.84,10,9,5,21,12,25,0.00,1,,270
2013-2-8,66,49,32,37,29,24,82,51,20,30.27,30.14,30.02,10,10,10,16,8,21,0.00,0,,87
2013-2-9,70,60,49,59,48,27,78,57,36,30.02,29.80,29.62,10,9,2,33,17,43,0.23,4,Rain-Thunderstorm,177
2013-2-10,68,57,45,57,25,12,54,33,12,29.98,29.89,29.75,10,10,4,29,8,35,T,1,Rain-Thunderstorm,277
2013-2-11,65,54,43,42,38,32,76,54,32,30.05,29.99,29.93,10,10,10,22,9,26,0.01,7,Rain,88
2013-2-12,65,51,37,50,40,21,93,56,19,30.13,29.93,29.86,10,8,2,33,13,41,0.02,5,Rain,318
2013-2-13,63,45,26,32,25,16,92,54,16,30.19,30.10,30.00,10,10,10,12,6,15,0.00,0,,231
2013-2-14,71,50,29,29,21,14,69,40,11,30.09,30.01,29.94,10,10,10,16,8,24,0.00,0,,221
2013-2-15,55,43,30,35,28,19,73,51,28,30.43,30.30,30.07,10,10,10,22,12,28,0.00,1,,27
2013-2-16,68,46,23,24,20,16,81,48,15,30.47,30.32,30.15,10,10,10,20,9,36,0.00,0,,227
2013-2-17,73,58,42,46,29,20,55,35,14,30.12,29.97,29.80,10,10,10,26,16,35,0.00,0,,190
2013-2-18,76,60,43,50,33,14,83,46,9,30.09,29.90,29.76,10,10,10,30,16,41,0.00,1,,259
2013-2-19,63,50,37,32,27,22,64,43,21,30.24,30.11,30.03,10,10,10,20,9,24,T,3,,90
2013-2-20,56,53,50,54,48,33,100,71,41,30.01,29.78,29.57,10,6,1,23,12,28,0.06,8,Rain,94
2013-2-21,67,52,37,61,36,18,100,58,15,29.88,29.71,29.50,10,9,1,37,16,51,0.05,3,Rain-Thunderstorm,257
2013-2-22,56,44,31,35,27,21,82,57,32,30.14,30.03,29.90,10,10,10,18,9,21,0.00,2,,51
2013-2-23,68,47,26,30,20,9,92,51,9,30.09,29.95,29.82,10,10,10,18,6,25,0.00,0,,214
2013-2-24,79,59,38,53,37,18,72,44,16,29.80,29.65,29.46,10,10,10,28,12,37,T,1,,187
2013-2-25,62,50,38,54,30,20,72,55,37,29.96,29.76,29.59,10,10,9,47,23,61,0.02,5,Rain-Thunderstorm,289
2013-2-26,70,48,26,25,21,16,75,44,12,29.98,29.87,29.75,10,10,10,17,8,22,0.00,0,,228
2013-2-27,60,48,36,30,21,9,70,42,13,30.29,30.15,29.84,10,10,10,29,13,35,0.00,0,,326
2013-2-28,62,44,25,26,19,14,74,45,16,30.36,30.28,30.21,10,10,10,16,5,25,0.00,0,,282